createdAt,value
2022-12-22T00:01:21.126Z,8.95
2022-12-22T00:04:29.184Z,14.02
2022-12-22T00:07:33.239Z,18.30
2022-12-22T00:10:38.039Z,13.13
2022-12-22T00:13:42.066Z,7.00
2022-12-22T00:16:56.689Z,10.93
2022-12-22T00:20:01.411Z,12.85
2022-12-22T00:23:05.558Z,16.60
2022-12-22T00:26:09.762Z,11.70
2022-12-22T00:29:14.523Z,10.65
2022-12-22T00:32:20.208Z,8.70
2022-12-22T00:35:30.145Z,16.42
2022-12-22T00:38:40.370Z,9.00
2022-12-22T00:41:44.587Z,18.00
2022-12-22T00:44:48.931Z,7.03
2022-12-22T00:47:53.061Z,19.02
2022-12-22T00:50:57.202Z,17.40
2022-12-22T00:54:01.132Z,13.70
2022-12-22T00:57:05.767Z,15.13
2022-12-22T01:00:13.490Z,9.25
2022-12-22T01:03:17.656Z,13.77
2022-12-22T01:06:22.132Z,15.98
2022-12-22T01:09:29.173Z,6.88
2022-12-22T01:12:42.359Z,12.90
2022-12-22T01:15:49.090Z,13.82
2022-12-22T01:18:53.058Z,16.65
2022-12-22T01:21:57.179Z,9.93
2022-12-22T01:25:02.395Z,13.63
2022-12-22T01:28:06.764Z,11.82
2022-12-22T01:31:10.681Z,15.90
2022-12-22T01:34:14.741Z,13.20
2022-12-22T01:37:18.879Z,18.40
2022-12-22T01:40:24.044Z,14.82
2022-12-22T01:43:42.404Z,10.57
2022-12-22T01:47:03.118Z,21.80
2022-12-22T01:50:07.211Z,11.07
2022-12-22T01:53:14.859Z,16.88
2022-12-22T01:56:24.501Z,12.65
2022-12-22T01:59:28.581Z,10.90
2022-12-22T02:02:35.709Z,6.53
2022-12-22T02:05:40.030Z,15.57
2022-12-22T02:08:52.173Z,7.93
2022-12-22T02:12:23.757Z,8.02
2022-12-22T02:15:34.321Z,12.80
2022-12-22T02:18:46.713Z,13.90
2022-12-22T02:22:04.859Z,11.77
2022-12-22T02:25:17.601Z,12.52
2022-12-22T02:31:26.903Z,16.95
2022-12-22T02:34:33.438Z,15.38
2022-12-22T02:37:48.648Z,7.18
2022-12-22T02:41:30.056Z,16.70
2022-12-22T02:45:24.241Z,18.10
2022-12-22T02:48:35.167Z,18.83
2022-12-22T02:51:44.874Z,12.93
2022-12-22T02:54:50.997Z,10.60
2022-12-22T02:57:55.195Z,13.98
2022-12-22T03:00:59.343Z,13.68
2022-12-22T03:04:03.620Z,11.18
2022-12-22T03:07:07.740Z,9.50
2022-12-22T03:10:11.673Z,11.95
2022-12-22T03:13:19.232Z,11.93
2022-12-22T03:16:23.957Z,8.43
2022-12-22T03:19:28.097Z,8.40
2022-12-22T03:22:32.139Z,10.93
2022-12-22T03:25:36.238Z,6.68
2022-12-22T03:28:27.460Z,12.75
2022-12-22T03:31:13.289Z,10.63
2022-12-22T03:33:59.021Z,10.95
2022-12-22T03:36:44.493Z,9.10
2022-12-22T03:39:29.859Z,9.52
2022-12-22T03:42:33.679Z,7.80
2022-12-22T03:45:37.678Z,10.88
2022-12-22T03:48:24.504Z,5.75
2022-12-22T03:51:10.561Z,5.22
2022-12-22T03:53:55.846Z,10.57
2022-12-22T03:56:41.792Z,8.32
2022-12-22T03:59:27.425Z,4.90
2022-12-22T04:02:13.297Z,9.05
2022-12-22T04:04:59.045Z,6.20
2022-12-22T04:07:44.507Z,4.18
2022-12-22T04:10:48.536Z,5.40
2022-12-22T04:13:34.186Z,9.63
2022-12-22T04:16:19.621Z,6.72
2022-12-22T04:19:06.754Z,5.50
2022-12-22T04:21:52.271Z,4.97
2022-12-22T04:24:37.658Z,6.03
2022-12-22T04:27:23.094Z,5.95
2022-12-22T04:30:09.009Z,5.15
2022-12-22T04:32:54.452Z,5.80
2022-12-22T04:35:39.676Z,7.13
2022-12-22T04:38:25.106Z,4.72
2022-12-22T04:41:10.567Z,9.02
2022-12-22T04:43:56.237Z,7.85
2022-12-22T04:46:41.624Z,4.57
2022-12-22T04:49:26.908Z,17.02
2022-12-22T04:52:12.384Z,5.35
2022-12-22T04:54:57.828Z,6.95
2022-12-22T04:57:43.312Z,5.57
2022-12-22T05:00:29.116Z,10.32
2022-12-22T05:03:14.444Z,8.13
2022-12-22T05:05:59.666Z,8.85
2022-12-22T05:08:44.951Z,14.48
2022-12-22T05:11:30.400Z,5.70
2022-12-22T05:14:16.128Z,11.80
2022-12-22T05:17:01.397Z,9.48
2022-12-22T05:19:47.176Z,10.65
2022-12-22T05:22:32.519Z,13.93
2022-12-22T05:25:20.035Z,7.93
2022-12-22T05:28:05.373Z,8.45
2022-12-22T05:30:51.062Z,3.92
2022-12-22T05:33:36.938Z,5.80
2022-12-22T05:36:22.267Z,4.68
2022-12-22T05:39:08.483Z,11.77
2022-12-22T05:41:54.200Z,6.07
2022-12-22T05:44:39.537Z,5.18
2022-12-22T05:47:24.877Z,4.50
2022-12-22T05:50:12.471Z,10.07
2022-12-22T05:52:57.724Z,6.97
2022-12-22T05:55:43.178Z,4.25
2022-12-22T05:58:28.664Z,7.53
2022-12-22T06:01:14.239Z,14.45
2022-12-22T06:04:00.767Z,14.00
2022-12-22T06:06:46.568Z,11.48
2022-12-22T06:09:32.060Z,7.55
2022-12-22T06:12:17.359Z,6.88
2022-12-22T06:15:02.764Z,8.07
2022-12-22T06:17:48.475Z,11.02
2022-12-22T06:20:33.723Z,10.95
2022-12-22T06:23:20.779Z,10.68
2022-12-22T06:26:06.321Z,12.90
2022-12-22T06:28:51.577Z,12.57
2022-12-22T06:31:36.998Z,15.45
2022-12-22T06:34:22.340Z,8.85
2022-12-22T06:37:07.699Z,15.05
2022-12-22T06:39:53.206Z,16.23
2022-12-22T06:43:02.147Z,9.75
2022-12-22T06:45:51.742Z,10.93
2022-12-22T06:48:37.413Z,8.98
2022-12-22T06:51:22.880Z,10.15
2022-12-22T06:54:08.159Z,12.43
2022-12-22T06:56:53.688Z,14.13
2022-12-22T06:59:39.219Z,4.65
2022-12-22T07:02:24.692Z,7.50
2022-12-22T07:05:10.518Z,12.45
2022-12-22T07:07:55.780Z,17.92
2022-12-22T07:10:59.190Z,10.15
2022-12-22T07:13:45.309Z,12.95
2022-12-22T07:16:30.660Z,9.15
2022-12-22T07:19:16.096Z,14.93
2022-12-22T07:22:01.567Z,13.20
2022-12-22T07:24:47.260Z,14.70
2022-12-22T07:27:32.722Z,10.40
2022-12-22T07:30:18.237Z,15.52
2022-12-22T07:33:04.615Z,11.95
2022-12-22T07:36:13.776Z,17.27
2022-12-22T07:38:59.266Z,8.13
2022-12-22T07:42:03.133Z,10.23
2022-12-22T07:44:48.846Z,14.63
2022-12-22T07:47:35.688Z,8.95
2022-12-22T07:50:32.632Z,13.20
2022-12-22T07:53:17.937Z,9.10
2022-12-22T07:56:05.200Z,7.93
2022-12-22T07:58:50.419Z,11.40
2022-12-22T08:01:35.985Z,8.63
2022-12-22T08:04:22.703Z,9.32
2022-12-22T08:07:08.414Z,11.48
2022-12-22T08:09:53.729Z,8.27
2022-12-22T08:12:40.273Z,9.90
2022-12-22T08:15:25.827Z,16.20
2022-12-22T08:18:11.180Z,7.65
2022-12-22T08:20:56.768Z,5.63
2022-12-22T08:23:42.376Z,10.98
2022-12-22T08:26:49.662Z,6.38
2022-12-22T08:29:57.678Z,12.43
2022-12-22T08:32:46.828Z,9.25
2022-12-22T08:35:32.587Z,6.30
2022-12-22T08:38:18.050Z,9.77
2022-12-22T08:41:03.759Z,7.75
2022-12-22T08:43:49.439Z,6.35
2022-12-22T08:46:34.861Z,6.70
2022-12-22T08:49:20.855Z,3.83
2022-12-22T08:52:06.568Z,4.95
2022-12-22T08:54:51.978Z,5.45
2022-12-22T08:57:37.764Z,8.80
2022-12-22T09:00:24.350Z,12.18
2022-12-22T09:03:09.755Z,9.27
2022-12-22T09:06:01.371Z,12.23
2022-12-22T09:08:47.683Z,6.47
2022-12-22T09:11:33.122Z,8.18
2022-12-22T09:14:18.716Z,14.10
2022-12-22T09:17:04.748Z,9.93
2022-12-22T09:19:50.116Z,3.10
2022-12-22T09:22:35.550Z,5.90
2022-12-22T09:25:21.465Z,5.22
2022-12-22T09:28:07.859Z,4.30
2022-12-22T09:30:54.692Z,7.45
2022-12-22T09:33:40.135Z,5.95
2022-12-22T09:36:28.539Z,7.93
2022-12-22T09:39:14.876Z,5.85
2022-12-22T09:42:01.509Z,10.45
2022-12-22T09:44:50.751Z,7.03
2022-12-22T09:47:39.659Z,8.15
2022-12-22T09:50:26.975Z,7.45
2022-12-22T09:53:24.458Z,12.30
2022-12-22T09:56:15.539Z,7.60
2022-12-22T09:59:00.941Z,16.30
2022-12-22T10:01:52.275Z,10.90
2022-12-22T10:04:54.126Z,12.00
2022-12-22T10:07:42.490Z,18.00
2022-12-22T10:10:30.536Z,9.45
2022-12-22T10:13:19.829Z,12.75
2022-12-22T10:16:26.139Z,8.82
2022-12-22T10:19:13.786Z,11.48
2022-12-22T10:22:32.628Z,7.88
2022-12-22T10:25:45.283Z,17.50
2022-12-22T10:28:48.225Z,9.48
2022-12-22T10:31:37.092Z,11.93
2022-12-22T10:34:22.548Z,10.23
2022-12-22T10:37:07.922Z,10.20
2022-12-22T10:39:53.390Z,11.27
2022-12-22T10:42:38.976Z,12.00
2022-12-22T10:45:27.170Z,11.32
2022-12-22T10:48:14.442Z,9.85
2022-12-22T10:51:01.121Z,7.22
2022-12-22T10:53:49.573Z,7.95
2022-12-22T10:56:35.668Z,8.77
2022-12-22T10:59:21.022Z,12.00
2022-12-22T11:02:38.384Z,6.47
2022-12-22T11:05:24.858Z,10.48
2022-12-22T11:08:20.638Z,8.10
2022-12-22T11:11:14.465Z,14.80
2022-12-22T11:14:26.418Z,12.80
2022-12-22T11:17:31.916Z,12.35
2022-12-22T11:20:17.525Z,10.13
2022-12-22T11:23:33.174Z,7.55
2022-12-22T11:26:41.990Z,12.45
2022-12-22T11:30:04.975Z,3.83
2022-12-22T11:32:59.612Z,6.00
2022-12-22T11:36:05.045Z,5.10
2022-12-22T11:39:01.450Z,4.35
2022-12-22T11:42:01.386Z,8.18
2022-12-22T11:45:00.045Z,7.10
2022-12-22T11:48:00.985Z,7.70
2022-12-22T11:50:58.554Z,6.47
2022-12-22T11:54:11.650Z,19.38
2022-12-22T11:57:44.373Z,9.88
2022-12-22T12:01:12.263Z,33.13
2022-12-22T12:04:22.364Z,5.13
2022-12-22T12:07:26.721Z,4.88
2022-12-22T12:10:48.749Z,2.78
2022-12-22T12:13:54.077Z,7.00
2022-12-22T12:16:52.986Z,2.55
2022-12-22T12:20:06.290Z,5.82
2022-12-22T12:23:24.352Z,2.72
2022-12-22T12:26:30.938Z,7.97
2022-12-22T12:29:20.739Z,7.65
2022-12-22T12:32:19.055Z,6.82
2022-12-22T12:35:22.734Z,5.90
2022-12-22T12:38:39.733Z,8.90
2022-12-22T12:41:38.165Z,15.93
2022-12-22T12:44:27.259Z,16.25
2022-12-22T12:47:27.436Z,12.05
2022-12-22T12:50:34.050Z,9.27
2022-12-22T12:53:21.669Z,10.75
2022-12-22T12:56:09.213Z,9.10
2022-12-22T12:58:55.174Z,10.05
2022-12-22T13:01:40.716Z,7.82
2022-12-22T13:05:14.436Z,9.38
2022-12-22T13:08:18.330Z,7.30
2022-12-22T13:11:06.728Z,15.40
2022-12-22T13:13:52.784Z,10.88
2022-12-22T13:16:40.012Z,8.60
2022-12-22T13:19:27.033Z,9.82
2022-12-22T13:22:12.791Z,10.43
2022-12-22T13:25:02.243Z,13.00
2022-12-22T13:27:49.278Z,10.57
2022-12-22T13:30:34.952Z,24.08
2022-12-22T13:33:25.467Z,9.20
2022-12-22T13:36:20.203Z,13.27
2022-12-22T13:39:12.571Z,7.78
2022-12-22T13:41:58.581Z,7.20
2022-12-22T13:44:44.417Z,10.05
2022-12-22T13:47:30.340Z,5.82
2022-12-22T13:50:30.955Z,7.80
2022-12-22T13:54:06.353Z,11.88
2022-12-22T13:56:43.292Z,7.20
2022-12-22T13:59:28.818Z,8.70
2022-12-22T14:02:17.881Z,8.95
2022-12-22T14:05:09.950Z,7.82
2022-12-22T14:08:06.843Z,8.95
2022-12-22T14:10:54.141Z,9.80
2022-12-22T14:13:40.282Z,8.23
2022-12-22T14:16:26.199Z,14.23
2022-12-22T14:19:15.078Z,10.80
2022-12-22T14:22:06.238Z,8.00
2022-12-22T14:24:54.913Z,11.55
2022-12-22T14:27:48.892Z,7.97
2022-12-22T14:30:46.588Z,10.05
2022-12-22T14:33:34.287Z,14.35
2022-12-22T14:36:27.042Z,9.45
2022-12-22T14:39:25.018Z,10.63
2022-12-22T14:42:14.460Z,10.88
2022-12-22T14:45:00.634Z,15.77
2022-12-22T14:47:46.379Z,14.80
2022-12-22T14:50:31.916Z,8.88
2022-12-22T14:53:25.888Z,10.05
2022-12-22T14:56:13.787Z,12.80
2022-12-22T14:59:11.309Z,12.82
2022-12-22T15:02:36.706Z,9.45
2022-12-22T15:05:29.191Z,19.13
2022-12-22T15:08:38.769Z,10.52
2022-12-22T15:11:24.830Z,22.70
2022-12-22T15:14:16.489Z,37.08
2022-12-22T15:17:02.400Z,43.95
2022-12-22T15:19:49.712Z,26.75
2022-12-22T15:22:38.264Z,19.83
2022-12-22T15:25:25.008Z,19.45
2022-12-22T15:28:10.347Z,20.92
2022-12-22T15:30:55.698Z,22.95
2022-12-22T15:33:42.016Z,25.67
2022-12-22T15:36:27.450Z,15.55
2022-12-22T15:39:15.839Z,18.67
2022-12-22T15:42:01.065Z,17.38
2022-12-22T15:44:46.456Z,13.98
2022-12-22T15:47:32.163Z,17.80
2022-12-22T15:50:25.686Z,15.80
2022-12-22T15:53:20.769Z,14.80
2022-12-22T15:56:17.204Z,19.98
2022-12-22T15:59:03.268Z,14.45
2022-12-22T16:01:48.815Z,22.13
2022-12-22T16:04:34.504Z,16.23
2022-12-22T16:07:20.112Z,19.02
2022-12-22T16:10:08.469Z,15.50
2022-12-22T16:13:00.663Z,17.17
2022-12-22T16:15:46.413Z,18.98
2022-12-22T16:18:32.995Z,20.33
2022-12-22T16:21:24.236Z,17.65
2022-12-22T16:24:25.231Z,17.80
2022-12-22T16:27:14.777Z,13.02
2022-12-22T16:30:00.455Z,15.50
2022-12-22T16:32:46.147Z,16.95
2022-12-22T16:35:33.125Z,14.63
2022-12-22T16:38:19.541Z,17.13
2022-12-22T16:41:06.752Z,17.15
2022-12-22T16:47:04.835Z,18.42
2022-12-22T16:49:50.990Z,19.33
2022-12-22T16:52:41.471Z,18.30
2022-12-22T16:55:27.624Z,12.50
2022-12-22T16:58:14.156Z,21.95
2022-12-22T17:01:00.115Z,20.17
2022-12-22T17:03:45.575Z,17.33
2022-12-22T17:06:31.483Z,37.35
2022-12-22T17:09:26.063Z,110.88
2022-12-22T17:12:18.044Z,88.78
2022-12-22T17:15:03.628Z,51.88
2022-12-22T17:17:49.635Z,23.00
2022-12-22T17:20:35.066Z,25.15
2022-12-22T17:23:45.456Z,31.17
2022-12-22T17:26:34.152Z,22.92
2022-12-22T17:29:23.663Z,33.85
2022-12-22T17:32:13.732Z,45.20
2022-12-22T17:34:59.149Z,71.90
2022-12-22T17:37:46.319Z,35.60
2022-12-22T17:40:31.989Z,28.08
2022-12-22T17:43:19.840Z,35.33
2022-12-22T17:46:05.995Z,33.28
2022-12-22T17:48:51.606Z,28.58
2022-12-22T17:51:37.618Z,24.17
2022-12-22T17:54:28.073Z,32.15
2022-12-22T17:57:23.611Z,30.70
2022-12-22T18:00:18.344Z,31.25
2022-12-22T18:03:04.380Z,38.95
2022-12-22T18:05:49.935Z,38.25
2022-12-22T18:08:35.283Z,45.40
2022-12-22T18:11:22.597Z,37.38
2022-12-22T18:14:12.866Z,36.70
2022-12-22T18:16:58.458Z,39.92
2022-12-22T18:19:43.640Z,41.95
2022-12-22T18:22:29.883Z,33.60
2022-12-22T18:25:25.879Z,42.40
2022-12-22T18:28:15.987Z,45.58
2022-12-22T18:31:01.436Z,51.33
2022-12-22T18:33:47.454Z,46.28
2022-12-22T18:36:34.032Z,36.35
2022-12-22T18:39:20.382Z,45.35
2022-12-22T18:42:20.816Z,38.90
2022-12-22T18:45:07.548Z,40.97
2022-12-22T18:47:53.987Z,41.78
2022-12-22T18:50:40.109Z,45.75
2022-12-22T18:53:31.987Z,47.38
2022-12-22T18:56:17.891Z,54.88
2022-12-22T18:59:18.912Z,52.30
2022-12-22T19:02:33.917Z,59.83
2022-12-22T19:05:40.695Z,58.97
2022-12-22T19:08:28.106Z,44.45
2022-12-22T19:11:15.389Z,50.42
2022-12-22T19:14:00.877Z,69.05
2022-12-22T19:16:47.713Z,57.38
2022-12-22T19:19:32.919Z,49.97
2022-12-22T19:22:18.401Z,60.45
2022-12-22T19:25:04.080Z,78.35
2022-12-22T19:27:52.830Z,69.20
2022-12-22T19:30:38.158Z,76.47
2022-12-22T19:33:41.637Z,54.83
2022-12-22T19:36:28.814Z,65.53
2022-12-22T19:39:14.263Z,65.00
2022-12-22T19:41:59.605Z,71.40
2022-12-22T19:44:45.584Z,66.05
2022-12-22T19:47:30.835Z,63.25
2022-12-22T19:50:25.969Z,59.08
2022-12-22T19:53:11.993Z,65.40
2022-12-22T19:55:57.675Z,69.53
2022-12-22T19:58:42.997Z,51.58
2022-12-22T20:01:28.834Z,66.40
2022-12-22T20:04:14.425Z,55.72
2022-12-22T20:06:59.831Z,48.83
2022-12-22T20:09:45.502Z,55.33
2022-12-22T20:12:37.934Z,59.45
2022-12-22T20:15:28.821Z,61.55
2022-12-22T20:18:19.275Z,56.58
2022-12-22T20:21:08.430Z,59.47
2022-12-22T20:23:56.798Z,64.60
2022-12-22T20:26:42.466Z,58.03
2022-12-22T20:29:27.941Z,60.42
2022-12-22T20:32:15.062Z,60.85
2022-12-22T20:35:00.632Z,66.93
2022-12-22T20:37:46.811Z,58.03
2022-12-22T20:40:33.537Z,60.72
2022-12-22T20:43:22.984Z,62.70
2022-12-22T20:46:14.173Z,67.72
2022-12-22T20:49:02.185Z,65.03
2022-12-22T20:51:47.970Z,75.72
2022-12-22T20:54:33.831Z,72.88
2022-12-22T20:57:27.005Z,79.75
2022-12-22T21:00:26.954Z,64.85
2022-12-22T21:03:12.425Z,47.90
2022-12-22T21:05:58.217Z,55.63
2022-12-22T21:08:43.766Z,58.10
2022-12-22T21:11:29.866Z,68.72
2022-12-22T21:14:16.054Z,68.55
2022-12-22T21:17:01.890Z,68.15
2022-12-22T21:19:47.665Z,68.05
2022-12-22T21:22:33.523Z,67.72
2022-12-22T21:25:19.072Z,54.97
2022-12-22T21:28:07.840Z,62.40
2022-12-22T21:30:53.230Z,54.25
2022-12-22T21:33:38.605Z,52.78
2022-12-22T21:36:27.994Z,52.20
2022-12-22T21:39:31.619Z,55.95
2022-12-22T21:42:18.722Z,56.53
2022-12-22T21:45:04.907Z,53.63
2022-12-22T21:47:50.589Z,50.88
2022-12-22T21:50:36.170Z,55.28
2022-12-22T21:53:22.645Z,49.17
2022-12-22T21:56:18.857Z,64.03
2022-12-22T21:59:04.407Z,65.53
2022-12-22T22:01:53.031Z,62.78
2022-12-22T22:04:38.723Z,76.85
2022-12-22T22:07:23.996Z,57.45
2022-12-22T22:10:10.222Z,72.13
2022-12-22T22:12:56.360Z,73.68
2022-12-22T22:15:41.752Z,83.72
2022-12-22T22:18:26.936Z,77.78
2022-12-22T22:21:14.453Z,105.53
2022-12-22T22:24:00.047Z,111.45
2022-12-22T22:26:46.511Z,99.03
2022-12-22T22:29:31.856Z,102.00
2022-12-22T22:32:17.298Z,106.10
2022-12-22T22:35:02.871Z,91.25
2022-12-22T22:37:52.073Z,102.18
2022-12-22T22:40:37.672Z,100.35
2022-12-22T22:43:23.131Z,52.45
2022-12-22T22:46:08.495Z,67.65
2022-12-22T22:48:53.885Z,46.15
2022-12-22T22:51:39.149Z,55.90
2022-12-22T22:54:24.825Z,43.47
2022-12-22T23:09:22.996Z,60.38
2022-12-22T23:12:08.387Z,66.20
2022-12-22T23:14:53.709Z,57.70
2022-12-22T23:17:39.165Z,42.15
2022-12-22T23:20:24.347Z,49.95
2022-12-22T23:23:09.548Z,66.68
2022-12-22T23:25:55.163Z,66.85
2022-12-22T23:28:40.666Z,63.15
2022-12-22T23:31:26.526Z,52.88
2022-12-22T23:34:12.787Z,65.15
2022-12-22T23:36:58.603Z,108.60
2022-12-22T23:39:44.410Z,118.55
2022-12-22T23:42:29.713Z,127.65
2022-12-22T23:45:15.189Z,118.53
2022-12-22T23:48:00.509Z,116.43
2022-12-22T23:50:46.801Z,96.90
2022-12-22T23:53:32.882Z,84.25
2022-12-22T23:56:18.315Z,72.05
2022-12-22T23:59:03.952Z,76.93
